Time;durP1;ratioP1;P1;durP2;ratioP2;P2;SDS_P1;SDS_P2;PMS_P1;PMS_P2;Temp;Humidity;BMP_temperature;BMP_pressure;BME280_temperature;BME280_humidity;BME280_pressure;Samples;Min_cycle;Max_cycle;Signal;HPM_P1;HPM_P2
2022/06/30 00:01:24;;;;;;;25.77;7.20;;;;;;;16.41;49.18;100066.88;4979740;28;20046;-65
2022/06/30 00:03:50;;;;;;;21.40;7.15;;;;;;;16.41;49.14;100066.88;4962774;28;20054;-66
2022/06/30 00:06:16;;;;;;;24.75;6.78;;;;;;;16.36;49.30;100065.03;4962987;28;20046;-66
2022/06/30 00:08:42;;;;;;;29.10;8.23;;;;;;;16.36;49.86;100065.03;4963416;28;20059;-66
2022/06/30 00:11:08;;;;;;;27.70;6.28;;;;;;;16.30;50.09;100063.47;4962944;28;20609;-67
2022/06/30 00:13:37;;;;;;;37.30;7.55;;;;;;;16.26;50.77;100074.31;4975718;28;20514;-66
2022/06/30 00:16:04;;;;;;;33.15;7.35;;;;;;;16.24;50.97;100075.75;4982459;28;20112;-66
2022/06/30 00:18:30;;;;;;;25.90;7.75;;;;;;;16.19;50.78;100059.31;4984068;28;20149;-64
2022/06/30 00:20:57;;;;;;;23.03;6.90;;;;;;;16.21;51.36;100059.81;4984189;28;20047;-65
2022/06/30 00:23:23;;;;;;;26.93;6.80;;;;;;;16.14;51.63;100055.50;4980219;28;20050;-65
2022/06/30 00:25:49;;;;;;;23.00;7.28;;;;;;;16.18;50.94;100055.72;4981496;28;20137;-66
2022/06/30 00:28:18;;;;;;;21.73;6.53;;;;;;;16.18;51.34;100050.19;4981833;28;20138;-66
2022/06/30 00:30:46;;;;;;;25.63;6.93;;;;;;;16.21;51.02;100057.06;4984305;28;20153;-66
2022/06/30 00:33:12;;;;;;;24.95;6.05;;;;;;;16.19;50.79;100064.81;4979856;28;20043;-66
2022/06/30 00:35:39;;;;;;;29.35;6.93;;;;;;;16.13;51.20;100059.38;4982329;28;20509;-66
2022/06/30 00:38:05;;;;;;;23.23;6.45;;;;;;;16.10;51.07;100060.00;4983806;28;20060;-68
2022/06/30 00:40:34;;;;;;;20.33;6.60;;;;;;;16.12;51.31;100052.25;4982058;28;20069;-67
2022/06/30 00:43:00;;;;;;;34.22;7.80;;;;;;;16.08;51.23;100062.25;4982649;28;20054;-64
2022/06/30 00:45:26;;;;;;;23.25;6.35;;;;;;;16.10;51.41;100060.00;4982295;28;20046;-65
2022/06/30 00:47:54;;;;;;;27.33;6.63;;;;;;;16.09;51.39;100057.56;4983751;28;20050;-66
2022/06/30 00:50:20;;;;;;;26.95;6.65;;;;;;;16.06;51.56;100058.16;4968455;28;20101;-64
2022/06/30 00:52:50;;;;;;;27.77;6.38;;;;;;;15.99;51.48;100056.63;4961713;28;20055;-65
2022/06/30 00:55:19;;;;;;;21.45;5.68;;;;;;;15.87;51.08;100035.06;4953326;28;20112;-65
2022/06/30 00:57:46;;;;;;;27.90;5.50;;;;;;;15.95;51.56;100044.59;4984209;28;20046;-67
2022/06/30 01:00:13;;;;;;;31.15;5.93;;;;;;;15.92;51.80;100044.38;4969355;28;20055;-67
2022/06/30 01:02:40;;;;;;;;;;;;;;;15.89;51.93;100048.53;4983007;28;20089;-64
2022/06/30 01:05:08;;;;;;;26.08;5.20;;;;;;;15.89;51.33;100051.31;4981012;28;20020;-66
2022/06/30 01:07:34;;;;;;;34.72;6.13;;;;;;;15.85;51.83;100037.31;4980354;28;20137;-65
2022/06/30 01:12:47;;;;;;;22.05;5.28;;;;;;;15.85;51.61;100039.22;4980467;28;20074;-66
2022/06/30 01:15:16;;;;;;;23.52;6.70;;;;;;;15.86;52.27;100035.34;4981005;28;20050;-67
2022/06/30 01:17:43;;;;;;;24.70;5.95;;;;;;;15.83;52.39;100036.75;4980984;28;20542;-65
2022/06/30 01:20:11;;;;;;;21.05;6.15;;;;;;;15.82;51.74;100026.06;4969487;28;20055;-68
2022/06/30 01:22:39;;;;;;;24.00;5.38;;;;;;;15.88;51.10;100030.34;4976783;28;20051;-67
2022/06/30 01:25:07;;;;;;;22.20;6.50;;;;;;;15.91;51.39;100026.19;4981831;28;20522;-67
2022/06/30 01:27:32;;;;;;;;;;;;;;;15.94;51.29;100028.34;4965607;28;20522;-66
2022/06/30 01:29:59;;;;;;;19.83;5.88;;;;;;;15.93;51.30;100029.47;4983435;28;19933;-67
2022/06/30 01:32:26;;;;;;;24.65;5.47;;;;;;;15.93;51.25;100024.78;4982783;28;20054;-66
2022/06/30 01:34:52;;;;;;;20.08;6.82;;;;;;;15.95;50.97;100032.72;4983341;28;20050;-66
2022/06/30 01:37:19;;;;;;;22.85;5.78;;;;;;;15.97;50.27;100033.22;4981234;28;20046;-65
2022/06/30 01:39:49;;;;;;;;;;;;;;;15.95;50.60;100030.81;4981367;28;20145;-66
2022/06/30 01:42:16;;;;;;;17.67;5.40;;;;;;;15.97;50.99;100027.72;4984019;28;20020;-67
2022/06/30 01:44:42;;;;;;;18.27;6.05;;;;;;;15.85;50.94;100004.22;4981662;28;20042;-66
2022/06/30 01:47:09;;;;;;;22.92;6.07;;;;;;;15.96;51.22;100018.66;4984263;28;20108;-66
2022/06/30 01:49:37;;;;;;;19.15;5.70;;;;;;;16.01;51.38;100018.53;5003309;28;20137;-66
2022/06/30 01:52:04;;;;;;;29.13;6.35;;;;;;;16.08;51.85;100022.81;4970182;28;20050;-66
2022/06/30 01:54:31;;;;;;;;;;;;;;;16.09;51.75;100019.75;4984626;28;20510;-66
2022/06/30 01:57:00;;;;;;;;;;;;;;;16.13;51.37;100014.47;4985469;28;19926;-65
2022/06/30 01:59:28;;;;;;;25.17;6.80;;;;;;;16.16;51.49;100017.44;4973001;28;19993;-67
2022/06/30 02:01:54;;;;;;;22.10;5.72;;;;;;;16.22;51.61;100018.13;4985688;28;20467;-67
2022/06/30 02:07:05;;;;;;;35.58;7.30;;;;;;;16.38;51.06;100010.34;4986035;28;20201;-65
2022/06/30 02:09:31;;;;;;;31.10;6.72;;;;;;;16.43;51.30;100006.66;4986180;28;20042;-67
2022/06/30 02:14:44;;;;;;;25.80;6.38;;;;;;;16.49;51.56;99993.56;4975597;28;20054;-66
2022/06/30 02:17:11;;;;;;;29.85;7.30;;;;;;;16.56;51.58;100005.81;4951755;28;20489;-66
2022/06/30 02:19:37;;;;;;;29.08;7.50;;;;;;;16.63;51.37;100001.81;4965906;28;20438;-66
2022/06/30 02:22:04;;;;;;;28.38;7.80;;;;;;;16.71;50.61;100001.88;4965983;28;20047;-65
2022/06/30 02:24:30;;;;;;;43.72;7.88;;;;;;;16.80;50.38;100001.97;4962429;28;20057;-66
2022/06/30 02:26:56;;;;;;;36.70;7.57;;;;;;;16.86;50.34;100003.50;4964508;28;20047;-65
2022/06/30 02:29:22;;;;;;;31.10;7.40;;;;;;;16.90;50.94;99989.84;4967042;28;20109;-65
2022/06/30 02:31:50;;;;;;;34.45;8.07;;;;;;;16.97;50.43;100001.28;4967514;28;20062;-66
2022/06/30 02:34:15;;;;;;;;;;;;;;;17.04;50.47;100005.59;4964112;28;20047;-65
2022/06/30 02:36:41;;;;;;;43.22;8.88;;;;;;;17.06;50.57;100008.84;4963543;28;19925;-65
2022/06/30 02:39:07;;;;;;;34.97;8.40;;;;;;;17.09;50.42;100008.22;4966442;28;20557;-67
2022/06/30 02:41:34;;;;;;;40.13;8.75;;;;;;;17.11;50.34;100006.78;4969874;28;20047;-66
2022/06/30 02:44:02;;;;;;;24.90;7.75;;;;;;;17.18;50.11;100008.31;4966839;28;20082;-65
2022/06/30 02:46:27;;;;;;;;;;;;;;;17.25;49.71;100001.19;4963779;28;20129;-65
2022/06/30 02:48:55;;;;;;;35.70;7.10;;;;;;;17.32;49.53;100009.03;4953871;28;20029;-65
2022/06/30 02:51:21;;;;;;;49.10;7.97;;;;;;;17.38;49.49;100005.00;4982178;28;20125;-64
2022/06/30 02:53:47;;;;;;;28.92;7.68;;;;;;;17.42;49.30;100006.00;4984471;28;20050;-66
2022/06/30 02:56:13;;;;;;;28.20;7.82;;;;;;;17.44;48.86;100005.69;4982697;28;20057;-65
2022/06/30 02:58:39;;;;;;;43.25;8.07;;;;;;;17.47;48.63;99999.53;4981124;28;20095;-66
2022/06/30 03:01:06;;;;;;;28.30;7.70;;;;;;;17.40;48.85;100010.19;4965509;28;20593;-66
2022/06/30 03:03:32;;;;;;;33.80;9.02;;;;;;;17.41;49.01;99995.28;4998382;28;20213;-66
2022/06/30 03:05:59;;;;;;;37.22;9.13;;;;;;;17.52;48.78;99998.59;4983950;28;20137;-66
2022/06/30 03:08:25;;;;;;;47.55;8.70;;;;;;;17.61;48.73;100007.72;4984571;28;20361;-66
2022/06/30 03:10:51;;;;;;;34.42;7.95;;;;;;;17.68;48.58;100007.28;4985254;28;20050;-66
2022/06/30 03:13:17;;;;;;;45.83;10.02;;;;;;;17.74;48.34;100003.25;4983557;28;20542;-65
2022/06/30 03:15:43;;;;;;;28.45;8.27;;;;;;;17.83;48.54;100008.81;4968474;28;20055;-64
2022/06/30 03:18:09;;;;;;;31.17;8.32;;;;;;;17.91;48.09;100015.53;4966872;28;20055;-65
2022/06/30 03:20:35;;;;;;;29.05;8.20;;;;;;;18.03;47.87;100013.00;4967261;28;20550;-67
2022/06/30 03:23:03;;;;;;;26.88;7.78;;;;;;;18.13;47.56;100004.38;4966257;28;20065;-66
2022/06/30 03:25:28;;;;;;;;;;;;;;;18.22;47.62;99998.88;4965951;28;20074;-67
2022/06/30 03:27:55;;;;;;;27.15;7.72;;;;;;;18.27;48.04;99998.75;4964378;28;20390;-65
2022/06/30 03:30:21;;;;;;;32.63;7.38;;;;;;;18.30;48.21;100002.00;4983877;28;20664;-68
2022/06/30 03:32:48;;;;;;;22.45;6.03;;;;;;;18.24;48.73;100004.91;4983760;28;20051;-66
2022/06/30 03:35:13;;;;;;;26.48;6.22;;;;;;;18.25;48.70;100008.50;4983823;28;20105;-66
2022/06/30 03:37:39;;;;;;;20.33;5.85;;;;;;;18.27;48.69;99998.75;4982317;28;20054;-65
2022/06/30 03:40:08;;;;;;;18.95;5.68;;;;;;;18.37;48.54;100002.31;4998727;28;20050;-66
2022/06/30 03:42:34;;;;;;;21.73;6.15;;;;;;;18.43;48.44;99998.28;4982795;28;20042;-64
2022/06/30 03:45:01;;;;;;;22.77;6.30;;;;;;;18.49;48.24;100004.47;4997787;28;20070;-67
2022/06/30 03:47:29;;;;;;;25.98;5.40;;;;;;;18.57;47.78;99995.38;4968754;28;20530;-66
2022/06/30 03:49:55;;;;;;;16.65;4.65;;;;;;;18.67;46.90;99999.75;4985482;28;20232;-67
2022/06/30 03:52:21;;;;;;;20.08;5.50;;;;;;;18.73;46.22;99997.66;4987723;28;20073;-66
2022/06/30 03:54:48;;;;;;;13.85;3.50;;;;;;;18.75;44.79;99996.19;4979818;28;20502;-66
2022/06/30 03:57:15;;;;;;;15.90;4.47;;;;;;;18.78;43.62;99995.53;4983042;28;20050;-67
2022/06/30 03:59:41;;;;;;;;;;;;;;;18.83;42.90;99994.56;4972789;28;20346;-67
2022/06/30 04:02:07;;;;;;;13.32;3.05;;;;;;;18.88;42.87;100002.72;4972783;28;20499;-66
2022/06/30 04:04:33;;;;;;;41.20;3.75;;;;;;;18.91;42.60;99995.72;4982863;28;20046;-67
2022/06/30 04:06:59;;;;;;;22.40;2.90;;;;;;;18.92;42.26;99995.38;4976831;28;20070;-67
2022/06/30 04:09:26;;;;;;;25.90;3.63;;;;;;;18.96;42.08;100001.06;4967832;28;20066;-67
2022/06/30 04:11:51;;;;;;;15.30;3.50;;;;;;;18.99;42.05;100000.44;4967944;28;20042;-66
2022/06/30 04:14:19;;;;;;;21.05;6.80;;;;;;;18.99;41.91;100006.00;4976048;28;20121;-66
2022/06/30 04:16:45;;;;;;;14.88;3.03;;;;;;;19.04;41.62;100003.03;4967705;28;20055;-66
2022/06/30 04:19:11;;;;;;;10.43;2.97;;;;;;;19.11;41.71;100005.31;4965807;28;20404;-67
2022/06/30 04:21:37;;;;;;;9.55;2.58;;;;;;;19.16;41.45;99998.78;4971091;28;20054;-64
2022/06/30 04:24:05;;;;;;;9.80;2.55;;;;;;;19.23;40.91;100004.66;4984702;28;20050;-67
2022/06/30 04:26:31;;;;;;;6.72;2.08;;;;;;;19.27;40.60;99995.34;4982212;28;20104;-67
2022/06/30 04:28:57;;;;;;;14.95;2.92;;;;;;;19.25;40.62;100002.38;4982877;28;20050;-67
2022/06/30 04:34:10;;;;;;;6.68;2.03;;;;;;;19.41;39.91;99995.16;4973716;28;20176;-67
2022/06/30 04:36:36;;;;;;;11.23;2.20;;;;;;;19.52;39.82;99992.84;4964422;28;20522;-67
2022/06/30 04:39:02;;;;;;;8.82;2.33;;;;;;;19.60;39.67;99985.66;4969867;28;20121;-66
2022/06/30 04:41:28;;;;;;;31.85;3.50;;;;;;;19.59;39.80;99984.03;4963414;28;20157;-66
2022/06/30 04:43:56;;;;;;;27.20;3.00;;;;;;;19.58;39.89;99982.41;4981886;28;20196;-67
2022/06/30 04:46:23;;;;;;;16.42;2.75;;;;;;;19.52;39.98;99987.31;4987502;28;20047;-67
2022/06/30 04:48:51;;;;;;;24.27;2.35;;;;;;;19.53;39.63;99988.13;4963999;28;20042;-67
2022/06/30 04:51:17;;;;;;;12.13;2.20;;;;;;;19.56;39.83;99985.50;4964733;28;20113;-67
2022/06/30 04:53:44;;;;;;;13.52;2.65;;;;;;;19.62;39.95;99971.47;4965176;28;20082;-67
2022/06/30 04:56:10;;;;;;;10.43;2.05;;;;;;;19.71;39.71;99980.53;4964774;28;20169;-65
2022/06/30 04:58:37;;;;;;;16.77;1.92;;;;;;;19.77;39.52;99987.56;4965754;28;20057;-66
2022/06/30 05:01:04;;;;;;;17.05;3.10;;;;;;;19.82;39.90;99984.59;4965227;28;20049;-67
2022/06/30 05:03:30;;;;;;;7.83;2.10;;;;;;;19.91;39.29;99987.31;4957538;28;20042;-68
2022/06/30 05:05:58;;;;;;;8.30;1.80;;;;;;;19.95;39.02;99974.44;4962770;28;20302;-66
2022/06/30 05:08:25;;;;;;;14.48;2.13;;;;;;;19.96;39.02;99984.38;4961536;28;20058;-67
2022/06/30 05:10:52;;;;;;;8.10;1.60;;;;;;;19.94;38.33;99983.09;4963835;28;20380;-66
2022/06/30 05:13:18;;;;;;;19.97;1.90;;;;;;;19.93;38.26;99985.06;4963413;28;20101;-67
2022/06/30 05:15:47;;;;;;;16.80;2.13;;;;;;;19.94;37.27;99980.34;4963255;28;20523;-67
2022/06/30 05:18:13;;;;;;;13.70;1.83;;;;;;;19.96;37.42;99976.06;4962563;28;20078;-67
2022/06/30 05:20:40;;;;;;;18.92;2.85;;;;;;;20.01;37.50;99980.59;4964499;28;20217;-66
2022/06/30 05:23:08;;;;;;;23.90;2.00;;;;;;;20.09;36.93;99970.59;4971294;28;20046;-66
2022/06/30 05:28:21;;;;;;;7.03;1.73;;;;;;;20.19;36.36;99974.97;4973880;28;20461;-65
2022/06/30 05:30:47;;;;;;;11.88;1.55;;;;;;;20.21;36.26;99972.66;4980515;28;20051;-65
2022/06/30 05:33:14;;;;;;;33.67;2.38;;;;;;;20.27;36.36;99976.88;4993853;28;20038;-67
2022/06/30 05:35:40;;;;;;;11.73;1.63;;;;;;;20.26;36.08;99972.47;4968513;28;20069;-66
2022/06/30 05:38:07;;;;;;;13.73;1.98;;;;;;;20.20;35.62;99969.09;4970161;28;20070;-66
2022/06/30 05:40:33;;;;;;;9.88;1.40;;;;;;;20.17;34.95;99977.25;4970205;28;20415;-67
2022/06/30 05:43:00;;;;;;;23.85;2.22;;;;;;;20.12;35.19;99975.47;4987757;28;20064;-67
2022/06/30 05:45:26;;;;;;;12.27;2.20;;;;;;;20.01;35.23;99955.63;4969239;28;20129;-67
2022/06/30 05:47:53;;;;;;;14.38;2.10;;;;;;;20.17;34.68;99968.94;4973618;28;20042;-67
2022/06/30 05:50:20;;;;;;;13.23;1.80;;;;;;;20.21;33.94;99959.59;4971173;28;20419;-67
2022/06/30 05:52:46;;;;;;;8.13;1.90;;;;;;;20.19;33.66;99956.34;4965448;28;20055;-67
2022/06/30 05:55:14;;;;;;;16.15;2.05;;;;;;;20.20;33.64;99962.69;4965247;28;20499;-67
2022/06/30 05:57:51;;;;;;;16.98;1.73;;;;;;;20.26;33.72;99966.94;4950373;28;20073;-67
2022/06/30 06:00:18;;;;;;;21.15;2.28;;;;;;;20.32;34.24;99964.78;4995858;28;20161;-68
2022/06/30 06:02:44;;;;;;;27.58;2.70;;;;;;;20.37;34.10;99962.63;4974816;28;20070;-67
2022/06/30 06:05:10;;;;;;;33.13;2.78;;;;;;;20.41;32.12;99968.28;4971049;28;20074;-67
2022/06/30 06:07:37;;;;;;;22.30;2.30;;;;;;;20.28;32.05;99942.41;4970489;28;20552;-67
2022/06/30 06:10:03;;;;;;;14.77;2.08;;;;;;;20.50;32.60;99974.59;4986002;28;20093;-67
2022/06/30 06:12:31;;;;;;;32.05;3.05;;;;;;;20.47;30.87;99975.28;4976091;28;20140;-67
2022/06/30 06:14:56;;;;;;;51.70;3.67;;;;;;;20.47;28.35;99968.91;4965289;28;20047;-67
2022/06/30 06:17:23;;;;;;;15.77;1.60;;;;;;;20.50;28.66;99969.03;4981692;28;20042;-67
2022/06/30 06:19:49;;;;;;;24.85;2.90;;;;;;;20.50;29.13;99969.03;4977429;28;20063;-67
2022/06/30 06:22:15;;;;;;;35.63;2.30;;;;;;;20.51;27.51;99964.28;4964593;28;20593;-66
2022/06/30 06:24:41;;;;;;;47.28;3.13;;;;;;;20.50;27.81;99969.03;4978269;28;20058;-67
2022/06/30 06:27:08;;;;;;;21.27;2.05;;;;;;;20.62;28.53;99968.28;4980839;28;20498;-66
2022/06/30 06:29:35;;;;;;;23.08;2.13;;;;;;;20.74;28.11;99975.88;4973778;28;20066;-67
2022/06/30 06:32:01;;;;;;;22.10;2.90;;;;;;;20.83;27.62;99971.09;4980115;28;20038;-67
2022/06/30 06:34:27;;;;;;;17.05;2.20;;;;;;;20.95;27.39;99981.44;4969169;28;20518;-67
2022/06/30 06:36:53;;;;;;;12.43;1.95;;;;;;;21.09;26.60;99977.56;4983260;28;20054;-67
2022/06/30 06:39:19;;;;;;;16.70;2.15;;;;;;;21.17;26.19;99971.13;4983599;28;20097;-66
2022/06/30 06:41:45;;;;;;;17.15;2.10;;;;;;;21.23;26.61;99971.72;4977778;28;20529;-66
2022/06/30 06:44:11;;;;;;;22.75;1.98;;;;;;;21.32;27.15;99966.84;4981334;28;20045;-67
2022/06/30 06:46:39;;;;;;;16.90;1.70;;;;;;;21.35;27.40;99962.59;4976432;28;20055;-66
2022/06/30 06:49:06;;;;;;;7.20;1.80;;;;;;;21.41;27.47;99963.19;4982406;28;20042;-66
2022/06/30 06:51:34;;;;;;;15.25;1.83;;;;;;;21.45;27.37;99948.22;4980242;28;20050;-67
2022/06/30 06:54:00;;;;;;;;;;;;;;;21.66;27.19;99959.28;4983399;28;20054;-66
2022/06/30 06:56:27;;;;;;;16.55;2.03;;;;;;;21.78;27.72;99961.28;4979508;28;19926;-67
2022/06/30 06:58:53;;;;;;;;;;;;;;;21.90;27.69;99954.91;4969444;28;20054;-67
2022/06/30 07:01:20;;;;;;;10.00;1.70;;;;;;;21.94;28.07;99960.59;4613843;28;9999842;-67
2022/06/30 07:03:47;;;;;;;12.18;1.75;;;;;;;21.92;28.67;99946.19;4976858;28;20045;-66
2022/06/30 07:06:13;;;;;;;10.07;2.08;;;;;;;22.00;28.65;99950.00;4977379;28;20046;-67
2022/06/30 07:08:39;;;;;;;7.57;1.70;;;;;;;22.11;28.98;99956.75;4955778;28;20109;-67
2022/06/30 07:11:05;;;;;;;18.97;1.90;;;;;;;22.17;28.59;99944.22;4970158;28;20157;-67
2022/06/30 07:13:35;;;;;;;26.48;2.65;;;;;;;22.28;28.29;99960.44;4973793;28;20046;-66
2022/06/30 07:16:02;;;;;;;17.45;2.70;;;;;;;22.44;28.47;99947.41;4973070;28;20050;-67
2022/06/30 07:18:28;;;;;;;18.55;2.13;;;;;;;22.53;27.50;99936.13;4966633;28;20050;-67
2022/06/30 07:20:56;;;;;;;;;;;;;;;22.52;27.40;99949.28;4975136;28;20137;-67
2022/06/30 07:23:22;;;;;;;15.30;1.92;;;;;;;22.52;27.79;99942.88;4979386;28;19988;-68
2022/06/30 07:25:48;;;;;;;33.10;2.25;;;;;;;22.51;26.97;99958.78;4991660;28;20049;-67
2022/06/30 07:28:14;;;;;;;15.40;1.90;;;;;;;22.58;26.74;99947.06;4975126;28;20506;-67
2022/06/30 07:30:41;;;;;;;7.82;1.80;;;;;;;22.60;27.11;99935.53;4974973;28;20104;-67
2022/06/30 07:33:07;;;;;;;5.05;1.50;;;;;;;22.77;27.38;99935.25;4978595;28;20065;-67
2022/06/30 07:35:33;;;;;;;23.45;2.13;;;;;;;22.85;27.47;99950.19;4980841;28;20102;-66
2022/06/30 07:38:00;;;;;;;25.63;5.78;;;;;;;22.99;27.95;99952.59;4996281;28;20053;-67
2022/06/30 07:40:27;;;;;;;20.25;3.63;;;;;;;23.16;28.67;99942.28;4971740;28;20141;-66
2022/06/30 07:42:55;;;;;;;15.73;3.00;;;;;;;23.35;28.38;99948.00;4982019;28;20047;-67
2022/06/30 07:45:22;;;;;;;19.67;5.03;;;;;;;23.45;27.86;99941.06;4971901;28;20557;-67
2022/06/30 07:47:51;;;;;;;40.40;12.77;;;;;;;23.41;27.93;99937.38;4980132;28;20477;-66
2022/06/30 07:50:22;;;;;;;21.02;6.63;;;;;;;23.44;27.57;99944.22;4977787;28;20249;-67
2022/06/30 07:52:52;;;;;;;40.60;11.48;;;;;;;23.58;27.40;99947.38;4975496;28;20416;-68
2022/06/30 07:55:20;;;;;;;17.65;4.60;;;;;;;23.61;27.22;99941.09;4989418;28;20553;-67
2022/06/30 07:57:48;;;;;;;21.35;7.95;;;;;;;23.77;26.59;99938.25;4976994;28;20058;-67
2022/06/30 08:00:15;;;;;;;29.55;9.43;;;;;;;23.89;26.34;99934.59;4967720;28;20054;-68
2022/06/30 08:02:41;;;;;;;;;;;;;;;23.93;25.26;99943.03;4977241;28;20413;-67
2022/06/30 08:05:10;;;;;;;14.97;4.37;;;;;;;23.92;25.76;99931.06;4977653;28;19925;-67
2022/06/30 08:07:37;;;;;;;18.58;7.05;;;;;;;23.99;25.76;99930.41;4957003;28;20038;-65
2022/06/30 08:10:05;;;;;;;38.08;15.20;;;;;;;24.13;25.27;99929.97;4972454;28;20120;-68
2022/06/30 08:12:33;;;;;;;11.70;3.22;;;;;;;24.32;25.08;99925.56;4975760;28;20426;-67
2022/06/30 08:14:59;;;;;;;15.10;4.75;;;;;;;24.45;25.52;99912.28;4951874;28;20153;-67
2022/06/30 08:17:26;;;;;;;18.60;3.67;;;;;;;24.63;24.71;99916.25;4982861;28;20541;-65
2022/06/30 08:19:53;;;;;;;22.90;3.10;;;;;;;24.80;24.10;99910.59;4975702;28;20348;-66
2022/06/30 08:22:19;;;;;;;13.27;1.95;;;;;;;24.87;24.39;99916.34;4979888;28;20748;-67
2022/06/30 08:24:45;;;;;;;12.52;2.25;;;;;;;25.31;23.87;99915.97;4971749;28;20140;-66
2022/06/30 08:27:11;;;;;;;7.45;2.00;;;;;;;25.55;23.58;99916.78;4995647;28;20058;-67
2022/06/30 08:29:39;;;;;;;9.95;1.92;;;;;;;25.93;23.14;99918.97;4982416;28;20461;-67
2022/06/30 08:32:05;;;;;;;18.05;1.90;;;;;;;26.32;22.47;99911.16;4968571;28;20161;-66
2022/06/30 08:34:32;;;;;;;29.00;3.75;;;;;;;26.41;21.70;99918.47;4984565;28;20053;-67
2022/06/30 08:36:58;;;;;;;27.05;5.72;;;;;;;26.45;21.17;99899.69;4993761;28;20056;-66
2022/06/30 08:42:12;;;;;;;18.75;9.20;;;;;;;27.01;21.54;99905.56;4978968;28;20136;-65
2022/06/30 08:44:43;;;;;;;17.00;7.57;;;;;;;27.43;21.08;99898.75;4981688;28;20518;-67
2022/06/30 08:47:09;;;;;;;13.27;3.03;;;;;;;27.52;20.15;99895.66;4979458;28;20137;-68
2022/06/30 08:49:35;;;;;;;11.05;3.90;;;;;;;27.57;20.17;99891.69;4980997;28;20069;-68
2022/06/30 08:52:02;;;;;;;21.67;6.43;;;;;;;27.68;19.67;99884.13;4972954;28;20039;-65
2022/06/30 08:54:29;;;;;;;;;;;;;;;27.60;19.02;99883.25;4978807;28;20042;-67
2022/06/30 08:56:56;;;;;;;;;;;;;;;27.57;19.29;99895.28;4956074;28;20012;-66
2022/06/30 08:59:24;;;;;;;8.27;2.35;;;;;;;27.85;19.04;99885.44;4977276;28;20428;-67
2022/06/30 09:01:54;;;;;;;13.57;2.08;;;;;;;28.38;18.69;99888.16;4973635;28;20487;-68
2022/06/30 09:04:22;;;;;;;7.85;2.20;;;;;;;28.50;19.02;99892.63;4976133;28;20467;-67
2022/06/30 09:06:48;;;;;;;17.60;2.28;;;;;;;28.75;19.35;99889.88;4975256;28;20184;-65
2022/06/30 09:09:14;;;;;;;16.70;2.53;;;;;;;28.90;19.06;99879.53;4981395;28;20060;-68
2022/06/30 09:11:45;;;;;;;14.93;7.53;;;;;;;29.32;19.22;99879.97;4978700;28;20058;-66
2022/06/30 09:14:11;;;;;;;8.77;3.30;;;;;;;29.67;18.21;99883.19;4981082;28;20330;-67
2022/06/30 09:16:53;;;;;;;18.08;3.78;;;;;;;29.57;18.85;99879.97;4979624;28;20078;-67
2022/06/30 09:19:19;;;;;;;22.48;2.78;;;;;;;29.46;18.43;99869.94;4973145;28;20065;-66
2022/06/30 09:22:01;;;;;;;12.60;3.80;;;;;;;29.33;18.05;99883.56;4977801;28;20578;-67
2022/06/30 09:24:28;;;;;;;21.15;3.60;;;;;;;29.40;17.85;99884.38;4978085;28;20054;-67
2022/06/30 09:27:08;;;;;;;20.85;2.95;;;;;;;29.51;17.68;99883.59;4975532;28;20055;-66
2022/06/30 09:29:44;;;;;;;17.02;2.75;;;;;;;29.90;17.41;99893.22;4630014;28;10000447;-67
2022/06/30 09:32:11;;;;;;;15.30;2.97;;;;;;;29.94;17.05;99877.09;4973585;28;20046;-67
2022/06/30 09:34:38;;;;;;;16.83;2.83;;;;;;;29.79;17.48;99874.31;4973640;28;20164;-70
2022/06/30 09:37:15;;;;;;;13.13;3.63;;;;;;;29.95;17.91;99871.06;4977283;28;20054;-66
2022/06/30 09:39:43;;;;;;;32.53;6.30;;;;;;;30.27;17.80;99863.72;4975385;28;20062;-66
2022/06/30 09:42:09;;;;;;;36.67;5.13;;;;;;;30.72;17.33;99879.25;4975623;28;20042;-66
2022/06/30 09:44:35;;;;;;;;;;;;;;;31.02;17.05;99869.41;4965220;28;20585;-66
2022/06/30 09:47:04;;;;;;;23.02;4.13;;;;;;;31.08;17.30;99864.94;4977085;28;20015;-66
2022/06/30 09:49:33;;;;;;;39.47;4.15;;;;;;;31.10;17.47;99866.09;4974170;28;20142;-67
2022/06/30 09:52:01;;;;;;;35.67;4.45;;;;;;;31.04;17.32;99864.94;4959494;28;20101;-66
2022/06/30 09:54:30;;;;;;;14.60;4.45;;;;;;;31.16;16.99;99846.72;4972225;28;20057;-67
2022/06/30 09:57:00;;;;;;;17.33;2.92;;;;;;;31.60;16.83;99844.31;4980182;28;20054;-67
2022/06/30 09:59:27;;;;;;;10.35;2.30;;;;;;;31.64;17.12;99853.59;4981177;28;20074;-68
2022/06/30 10:01:54;;;;;;;12.25;2.38;;;;;;;31.89;16.89;99851.75;4979961;28;20121;-67
2022/06/30 10:04:21;;;;;;;10.07;2.15;;;;;;;32.24;16.13;99853.34;4978466;28;20042;-67
2022/06/30 10:06:48;;;;;;;11.40;2.50;;;;;;;32.80;15.92;99855.03;4976604;28;20069;-66
2022/06/30 10:09:19;;;;;;;20.60;6.20;;;;;;;33.20;15.48;99845.16;4974715;28;20341;-68
2022/06/30 10:11:46;;;;;;;15.13;3.75;;;;;;;33.23;15.45;99847.13;4979803;28;21031;-67
2022/06/30 10:14:15;;;;;;;17.88;2.60;;;;;;;32.74;15.40;99842.59;4635668;28;10000232;-66
2022/06/30 10:16:42;;;;;;;13.80;3.28;;;;;;;32.62;15.65;99841.13;4973950;28;20069;-66
2022/06/30 10:19:09;;;;;;;11.73;2.42;;;;;;;33.28;15.34;99838.13;4974509;28;20090;-66
2022/06/30 10:21:36;;;;;;;25.73;3.90;;;;;;;33.60;14.89;99828.28;4973026;28;20062;-66
2022/06/30 10:24:06;;;;;;;10.27;2.83;;;;;;;33.81;14.08;99834.78;4976280;28;20943;-67
2022/06/30 10:29:18;;;;;;;9.90;2.90;;;;;;;33.86;13.93;99827.78;4975393;28;20400;-67
2022/06/30 10:31:48;;;;;;;;;;;;;;;33.88;14.48;99831.78;4981229;28;20337;-67
2022/06/30 10:34:19;;;;;;;18.35;5.70;;;;;;;34.01;14.60;99834.00;4972431;28;20453;-66
2022/06/30 10:36:50;;;;;;;23.83;5.10;;;;;;;33.89;14.43;99832.59;4972473;28;20337;-67
2022/06/30 10:39:28;;;;;;;12.63;2.80;;;;;;;34.11;14.88;99823.69;4986513;28;20046;-67
2022/06/30 10:41:54;;;;;;;12.65;2.58;;;;;;;33.87;15.14;99816.03;4977000;28;20376;-67
2022/06/30 10:44:22;;;;;;;;;;;;;;;33.48;14.83;99821.22;4974082;28;20061;-67
2022/06/30 10:47:05;;;;;;;12.80;2.50;;;;;;;33.03;15.00;99827.22;4980654;28;20024;-67
2022/06/30 10:49:32;;;;;;;20.67;5.38;;;;;;;33.15;15.01;99818.13;4973326;28;20043;-67
2022/06/30 10:52:18;;;;;;;29.45;4.05;;;;;;;33.85;14.90;99817.69;4973460;28;20126;-67
2022/06/30 10:54:46;;;;;;;24.92;4.78;;;;;;;34.29;14.13;99818.41;4973262;28;20516;-67
2022/06/30 10:57:13;;;;;;;14.50;2.95;;;;;;;34.23;13.91;99812.47;4975541;28;20173;-68
2022/06/30 10:59:43;;;;;;;11.57;2.40;;;;;;;33.98;14.20;99804.50;4980416;28;20053;-65
2022/06/30 11:02:25;;;;;;;12.40;2.80;;;;;;;34.42;14.00;99798.69;4968269;28;20110;-67
2022/06/30 11:05:12;;;;;;;11.88;2.60;;;;;;;34.63;14.09;99791.75;4974890;28;20509;-67
2022/06/30 11:07:39;;;;;;;14.38;3.03;;;;;;;34.53;14.28;99789.97;4972966;28;20060;-67
2022/06/30 11:10:17;;;;;;;16.08;3.13;;;;;;;34.29;15.04;99809.91;4980318;28;20084;-67
2022/06/30 11:13:07;;;;;;;22.30;3.00;;;;;;;34.36;15.28;99808.97;4973270;28;20408;-67
2022/06/30 11:15:53;;;;;;;11.23;2.70;;;;;;;34.96;14.48;99782.44;4974265;28;20400;-67
2022/06/30 11:18:20;;;;;;;26.58;2.88;;;;;;;35.03;14.71;99787.16;4974709;28;20058;-68
2022/06/30 11:20:48;;;;;;;14.57;2.60;;;;;;;34.95;14.94;99792.19;4971689;28;20050;-67
2022/06/30 11:23:16;;;;;;;12.27;2.70;;;;;;;34.90;15.09;99792.75;4974255;28;20054;-68
2022/06/30 11:28:41;;;;;;;14.60;2.60;;;;;;;34.95;15.14;99799.91;4931390;28;20122;-67
2022/06/30 11:31:32;;;;;;;11.30;3.03;;;;;;;34.99;15.44;99783.59;4976872;28;20485;-66
2022/06/30 11:34:02;;;;;;;12.65;2.63;;;;;;;35.35;15.06;99792.00;4966084;28;20058;-67
2022/06/30 11:36:28;;;;;;;14.85;2.53;;;;;;;35.63;14.76;99788.88;4975223;28;20432;-68
2022/06/30 11:38:56;;;;;;;11.13;3.40;;;;;;;36.10;14.66;99783.91;4968946;28;20510;-67
2022/06/30 11:44:10;;;;;;;33.67;3.42;;;;;;;35.72;15.05;99782.53;4980931;28;20501;-66
2022/06/30 11:46:50;;;;;;;43.00;4.47;;;;;;;34.84;15.50;99780.31;4982150;28;20605;-67
2022/06/30 11:49:17;;;;;;;15.45;3.25;;;;;;;34.53;15.67;99783.47;4978647;28;20062;-68
2022/06/30 11:51:44;;;;;;;8.65;2.90;;;;;;;34.74;16.13;99777.31;4979722;28;20147;-66
2022/06/30 11:54:11;;;;;;;23.52;4.00;;;;;;;34.75;15.68;99772.41;4980592;28;20054;-69